createdAt,value
2022-11-21T00:00:40.816Z,8.46
2022-11-21T00:03:07.245Z,8.51
2022-11-21T00:05:33.676Z,8.55
2022-11-21T00:08:00.137Z,8.60
2022-11-21T00:10:26.565Z,8.62
2022-11-21T00:12:55.230Z,8.61
2022-11-21T00:15:22.565Z,8.64
2022-11-21T00:17:48.945Z,8.65
2022-11-21T00:20:15.989Z,8.61
2022-11-21T00:22:42.422Z,8.55
2022-11-21T00:25:09.270Z,8.53
2022-11-21T00:27:35.716Z,8.49
2022-11-21T00:30:02.145Z,8.50
2022-11-21T00:32:28.531Z,8.53
2022-11-21T00:34:54.899Z,8.56
2022-11-21T00:37:21.338Z,8.61
2022-11-21T00:39:47.691Z,8.64
2022-11-21T00:42:14.204Z,8.69
2022-11-21T00:44:40.657Z,8.74
2022-11-21T00:47:07.138Z,8.75
2022-11-21T00:49:33.669Z,8.77
2022-11-21T00:52:00.252Z,8.78
2022-11-21T00:54:27.045Z,8.79
2022-11-21T00:56:53.740Z,8.82
2022-11-21T00:59:20.259Z,8.82
2022-11-21T01:01:46.707Z,8.83
2022-11-21T01:04:13.203Z,8.85
2022-11-21T01:06:39.984Z,8.84
2022-11-21T01:09:06.415Z,8.82
2022-11-21T01:11:33.375Z,8.80
2022-11-21T01:14:00.738Z,8.79
2022-11-21T01:16:29.126Z,8.79
2022-11-21T01:18:56.573Z,8.79
2022-11-21T01:21:29.133Z,8.78
2022-11-21T01:23:58.440Z,8.75
2022-11-21T01:26:28.058Z,8.72
2022-11-21T01:28:54.904Z,8.70
2022-11-21T01:31:24.506Z,8.69
2022-11-21T01:33:51.652Z,8.68
2022-11-21T01:36:21.249Z,8.64
2022-11-21T01:38:49.639Z,8.64
2022-11-21T01:41:37.307Z,8.62
2022-11-21T01:44:22.862Z,8.60
2022-11-21T01:46:51.047Z,8.58
2022-11-21T01:49:22.908Z,8.54
2022-11-21T01:51:58.967Z,8.50
2022-11-21T01:54:36.639Z,8.46
2022-11-21T01:57:28.391Z,8.44
2022-11-21T02:00:01.224Z,8.44
2022-11-21T02:02:34.568Z,8.44
2022-11-21T02:05:02.932Z,8.41
2022-11-21T02:07:33.918Z,8.44
2022-11-21T02:10:03.081Z,8.39
2022-11-21T02:12:43.473Z,8.34
2022-11-21T02:15:11.040Z,8.30
2022-11-21T02:17:37.508Z,8.30
2022-11-21T02:20:07.171Z,8.30
2022-11-21T02:22:44.752Z,8.27
2022-11-21T02:25:15.514Z,8.24
2022-11-21T02:27:42.255Z,8.23
2022-11-21T02:30:10.858Z,8.23
2022-11-21T02:32:40.386Z,8.22
2022-11-21T02:35:08.211Z,8.21
2022-11-21T02:37:37.211Z,8.22
2022-11-21T02:40:08.776Z,8.20
2022-11-21T02:42:43.215Z,8.20
2022-11-21T02:45:20.184Z,8.19
2022-11-21T02:47:50.506Z,8.19
2022-11-21T02:50:23.905Z,8.21
2022-11-21T02:52:50.325Z,8.18
2022-11-21T02:55:17.062Z,8.15
2022-11-21T02:57:43.599Z,8.11
2022-11-21T03:00:11.298Z,8.05
2022-11-21T03:02:38.020Z,7.99
2022-11-21T03:05:06.313Z,7.94
2022-11-21T03:07:32.980Z,7.89
2022-11-21T03:09:59.452Z,7.84
2022-11-21T03:12:25.998Z,7.78
2022-11-21T03:14:52.444Z,7.73
2022-11-21T03:17:18.877Z,7.65
2022-11-21T03:19:45.313Z,7.58
2022-11-21T03:22:12.882Z,7.52
2022-11-21T03:24:39.299Z,7.46
2022-11-21T03:27:05.733Z,7.43
2022-11-21T03:29:32.189Z,7.40
2022-11-21T03:31:58.593Z,7.38
2022-11-21T03:34:26.153Z,7.38
2022-11-21T03:36:52.802Z,7.37
2022-11-21T03:39:19.318Z,7.37
2022-11-21T03:41:45.764Z,7.38
2022-11-21T03:44:12.776Z,7.41
2022-11-21T03:46:42.216Z,7.41
2022-11-21T03:49:09.400Z,7.43
2022-11-21T03:51:36.356Z,7.42
2022-11-21T03:54:03.717Z,7.43
2022-11-21T03:56:30.523Z,7.42
2022-11-21T03:58:57.439Z,7.44
2022-11-21T04:01:24.678Z,7.45
2022-11-21T04:03:52.208Z,7.46
2022-11-21T04:06:21.247Z,7.47
2022-11-21T04:08:48.908Z,7.48
2022-11-21T04:11:15.695Z,7.50
2022-11-21T04:13:42.390Z,7.50
2022-11-21T04:16:09.188Z,7.50
2022-11-21T04:18:36.386Z,7.53
2022-11-21T04:21:06.227Z,7.58
2022-11-21T04:23:32.922Z,7.61
2022-11-21T04:25:59.748Z,7.65
2022-11-21T04:28:26.251Z,7.68
2022-11-21T04:30:55.032Z,7.73
2022-11-21T04:33:21.817Z,7.75
2022-11-21T04:35:48.258Z,7.78
2022-11-21T04:38:15.026Z,7.81
2022-11-21T04:40:43.500Z,7.84
2022-11-21T04:43:09.876Z,7.86
2022-11-21T04:45:36.300Z,7.85
2022-11-21T04:48:02.825Z,7.88
2022-11-21T04:50:29.276Z,7.88
2022-11-21T04:52:57.081Z,7.90
2022-11-21T04:55:27.824Z,7.90
2022-11-21T04:57:54.217Z,7.89
2022-11-21T05:00:24.481Z,7.89
2022-11-21T05:02:51.178Z,7.88
2022-11-21T05:05:17.646Z,7.88
2022-11-21T05:07:44.133Z,7.89
2022-11-21T05:10:10.665Z,7.89
2022-11-21T05:12:55.448Z,7.86
2022-11-21T05:15:24.652Z,7.80
2022-11-21T05:17:51.651Z,7.81
2022-11-21T05:20:18.864Z,7.82
2022-11-21T05:22:49.848Z,7.83
2022-11-21T05:25:16.647Z,7.80
2022-11-21T05:27:43.108Z,7.83
2022-11-21T05:30:10.837Z,7.83
2022-11-21T05:32:37.799Z,7.84
2022-11-21T05:35:04.417Z,7.83
2022-11-21T05:37:30.832Z,7.83
2022-11-21T05:39:57.263Z,7.80
2022-11-21T05:42:43.594Z,7.78
2022-11-21T05:45:10.305Z,7.74
2022-11-21T05:47:36.804Z,7.71
2022-11-21T05:50:03.966Z,7.69
2022-11-21T05:52:30.352Z,7.67
2022-11-21T05:54:56.855Z,7.66
2022-11-21T05:57:23.227Z,7.67
2022-11-21T05:59:49.631Z,7.66
2022-11-21T06:02:34.413Z,7.65
2022-11-21T06:05:00.854Z,7.60
2022-11-21T06:07:27.298Z,7.59
2022-11-21T06:09:53.782Z,7.59
2022-11-21T06:12:25.106Z,7.59
2022-11-21T06:14:51.920Z,7.60
2022-11-21T06:17:18.364Z,7.60
2022-11-21T06:19:44.750Z,7.61
2022-11-21T06:22:11.190Z,7.58
2022-11-21T06:24:37.591Z,7.58
2022-11-21T06:27:04.036Z,7.57
2022-11-21T06:29:30.438Z,7.55
2022-11-21T06:31:56.915Z,7.55
2022-11-21T06:34:26.317Z,7.53
2022-11-21T06:36:52.998Z,7.52
2022-11-21T06:39:19.537Z,7.49
2022-11-21T06:41:50.914Z,7.44
2022-11-21T06:44:18.698Z,7.44
2022-11-21T06:46:50.743Z,7.40
2022-11-21T06:49:17.928Z,7.38
2022-11-21T06:51:44.324Z,7.37
2022-11-21T06:54:15.266Z,7.35
2022-11-21T06:56:43.291Z,7.36
2022-11-21T06:59:09.704Z,7.36
2022-11-21T07:01:36.175Z,7.38
2022-11-21T07:04:02.691Z,7.38
2022-11-21T07:06:29.099Z,7.42
2022-11-21T07:09:25.314Z,7.45
2022-11-21T07:11:42.311Z,7.47
2022-11-21T07:14:09.444Z,7.48
2022-11-21T07:16:36.026Z,7.49
2022-11-21T07:19:02.531Z,7.49
2022-11-21T07:21:28.942Z,7.47
2022-11-21T07:23:55.435Z,7.48
2022-11-21T07:26:21.834Z,7.49
2022-11-21T07:28:48.290Z,7.52
2022-11-21T07:31:14.710Z,7.54
2022-11-21T07:33:43.445Z,7.56
2022-11-21T07:36:11.090Z,7.58
2022-11-21T07:38:37.484Z,7.60
2022-11-21T07:41:03.979Z,7.63
2022-11-21T07:43:30.454Z,7.66
2022-11-21T07:45:56.830Z,7.68
2022-11-21T07:48:23.226Z,7.72
2022-11-21T07:50:49.656Z,7.74
2022-11-21T07:53:16.099Z,7.74
2022-11-21T07:55:42.630Z,7.76
2022-11-21T07:58:12.282Z,7.78
2022-11-21T08:00:39.977Z,7.78
2022-11-21T08:03:09.796Z,7.79
2022-11-21T08:05:37.695Z,7.79
2022-11-21T08:08:05.595Z,7.79
2022-11-21T08:10:31.987Z,7.79
2022-11-21T08:12:58.375Z,7.79
2022-11-21T08:15:24.794Z,7.82
2022-11-21T08:17:51.186Z,7.84
2022-11-21T08:20:17.694Z,7.86
2022-11-21T08:22:44.205Z,7.88
2022-11-21T08:25:11.152Z,7.90
2022-11-21T08:27:39.105Z,7.92
2022-11-21T08:30:08.273Z,7.95
2022-11-21T08:32:35.266Z,7.97
2022-11-21T08:35:01.806Z,7.99
2022-11-21T08:37:29.397Z,8.01
2022-11-21T08:39:58.837Z,8.03
2022-11-21T08:42:26.002Z,8.06
2022-11-21T08:44:52.471Z,8.08
2022-11-21T08:47:20.442Z,8.09
2022-11-21T08:49:47.550Z,8.11
2022-11-21T08:52:14.751Z,8.13
2022-11-21T08:54:41.248Z,8.13
2022-11-21T08:57:07.643Z,8.14
2022-11-21T08:59:34.125Z,8.15
2022-11-21T09:02:00.596Z,8.16
2022-11-21T09:04:27.382Z,8.18
2022-11-21T09:06:53.919Z,8.20
2022-11-21T09:09:25.128Z,8.23
2022-11-21T09:11:52.110Z,8.25
2022-11-21T09:14:37.603Z,8.29
2022-11-21T09:17:22.582Z,8.31
2022-11-21T09:19:49.203Z,8.35
2022-11-21T09:22:15.658Z,8.39
2022-11-21T09:24:42.091Z,8.43
2022-11-21T09:27:08.610Z,8.47
2022-11-21T09:29:35.066Z,8.54
2022-11-21T09:32:01.540Z,8.62
2022-11-21T09:34:28.193Z,8.68
2022-11-21T09:36:55.530Z,8.76
2022-11-21T09:39:22.339Z,8.86
2022-11-21T09:42:04.015Z,9.01
2022-11-21T09:44:42.381Z,9.13
2022-11-21T09:47:21.502Z,9.22
2022-11-21T09:49:55.278Z,9.36
2022-11-21T09:52:26.307Z,9.56
2022-11-21T09:55:01.458Z,9.89
2022-11-21T09:57:33.574Z,10.23
2022-11-21T10:00:04.203Z,10.58
2022-11-21T10:02:30.674Z,10.91
2022-11-21T10:05:00.728Z,11.20
2022-11-21T10:07:33.290Z,11.52
2022-11-21T10:10:18.783Z,11.83
2022-11-21T10:12:47.963Z,12.04
2022-11-21T10:15:19.262Z,12.20
2022-11-21T10:17:55.113Z,12.23
2022-11-21T10:20:38.523Z,11.95
2022-11-21T10:23:40.814Z,11.69
2022-11-21T10:26:23.393Z,11.66
2022-11-21T10:29:10.912Z,11.33
2022-11-21T10:31:40.918Z,11.33
2022-11-21T10:34:15.160Z,11.31
2022-11-21T10:36:45.872Z,11.52
2022-11-21T10:39:18.481Z,11.70
2022-11-21T10:41:53.814Z,11.94
2022-11-21T10:44:46.857Z,11.94
2022-11-21T10:47:30.898Z,12.07
2022-11-21T10:50:12.894Z,12.20
2022-11-21T10:52:49.571Z,12.04
2022-11-21T10:55:17.654Z,12.06
2022-11-21T10:57:49.442Z,12.53
2022-11-21T11:00:16.131Z,12.85
2022-11-21T11:03:02.190Z,13.19
2022-11-21T11:05:30.134Z,13.18
2022-11-21T11:08:02.790Z,13.04
2022-11-21T11:10:30.137Z,12.97
2022-11-21T11:16:09.901Z,12.96
2022-11-21T11:18:47.223Z,13.31
2022-11-21T11:21:17.971Z,13.39
2022-11-21T11:23:45.434Z,12.70
2022-11-21T11:26:25.254Z,12.55
2022-11-21T11:28:52.145Z,12.73
2022-11-21T11:31:18.588Z,12.91
2022-11-21T11:33:47.657Z,13.11
2022-11-21T11:36:39.441Z,13.32
2022-11-21T11:39:17.460Z,13.55
2022-11-21T11:42:17.000Z,13.27
2022-11-21T11:45:17.588Z,13.94
2022-11-21T11:47:55.104Z,13.99
2022-11-21T11:50:43.064Z,13.76
2022-11-21T11:53:26.508Z,13.58
2022-11-21T11:55:57.379Z,13.57
2022-11-21T11:58:34.943Z,13.43
2022-11-21T12:01:12.774Z,13.60
2022-11-21T12:04:07.350Z,13.71
2022-11-21T12:09:48.906Z,13.35
2022-11-21T12:12:19.074Z,13.29
2022-11-21T12:15:32.471Z,13.25
2022-11-21T12:18:19.978Z,13.38
2022-11-21T12:21:11.018Z,13.23
2022-11-21T12:23:47.241Z,13.70
2022-11-21T12:26:58.998Z,14.01
2022-11-21T12:30:07.395Z,14.32
2022-11-21T12:32:48.970Z,14.18
2022-11-21T12:35:49.784Z,14.40
2022-11-21T12:38:23.837Z,14.38
2022-11-21T12:41:46.386Z,14.57
2022-11-21T12:44:35.152Z,14.50
2022-11-21T12:47:23.249Z,14.48
2022-11-21T12:50:19.349Z,14.52
2022-11-21T12:53:14.761Z,14.68
2022-11-21T12:55:41.917Z,14.61
2022-11-21T12:58:35.556Z,14.38
2022-11-21T13:01:21.102Z,14.35
2022-11-21T13:04:02.232Z,14.11
2022-11-21T13:06:33.870Z,13.80
2022-11-21T13:09:05.016Z,13.38
2022-11-21T13:12:01.093Z,13.22
2022-11-21T13:14:46.301Z,13.21
2022-11-21T13:17:31.041Z,13.07
2022-11-21T13:20:05.610Z,12.99
2022-11-21T13:22:37.775Z,12.76
2022-11-21T13:25:04.314Z,12.65
2022-11-21T13:27:44.795Z,12.56
2022-11-21T13:30:11.420Z,12.39
2022-11-21T13:32:46.010Z,12.37
2022-11-21T13:35:21.294Z,12.33
2022-11-21T13:38:08.551Z,12.24
2022-11-21T13:40:39.764Z,12.27
2022-11-21T13:43:32.639Z,12.27
2022-11-21T13:46:00.109Z,12.18
2022-11-21T13:48:34.541Z,12.08
2022-11-21T13:51:30.597Z,11.98
2022-11-21T13:54:05.998Z,11.82
2022-11-21T13:57:11.056Z,11.82
2022-11-21T14:00:02.368Z,11.95
2022-11-21T14:02:34.928Z,11.84
2022-11-21T14:05:35.026Z,11.84
2022-11-21T14:08:23.378Z,11.73
2022-11-21T14:10:55.106Z,11.77
2022-11-21T14:13:31.525Z,11.88
2022-11-21T14:16:22.408Z,11.93
2022-11-21T14:18:49.420Z,11.91
2022-11-21T14:21:28.485Z,11.99
2022-11-21T14:24:04.833Z,12.08
2022-11-21T14:26:44.431Z,12.12
2022-11-21T14:29:26.919Z,11.98
2022-11-21T14:31:53.999Z,11.83
2022-11-21T14:34:31.695Z,11.70
2022-11-21T14:37:00.484Z,11.54
2022-11-21T14:39:39.954Z,11.34
2022-11-21T14:42:15.522Z,11.17
2022-11-21T14:44:42.838Z,11.05
2022-11-21T14:47:21.231Z,10.96
2022-11-21T14:49:53.593Z,10.84
2022-11-21T14:52:32.749Z,10.74
2022-11-21T14:57:47.940Z,10.54
2022-11-21T15:03:18.761Z,10.37
2022-11-21T15:06:05.301Z,10.29
2022-11-21T15:11:23.441Z,10.12
2022-11-21T15:16:40.810Z,9.98
2022-11-21T15:19:10.907Z,9.93
2022-11-21T15:21:37.644Z,9.88
2022-11-21T15:24:32.548Z,9.81
2022-11-21T15:26:59.524Z,9.72
2022-11-21T15:29:27.000Z,9.70
2022-11-21T15:32:07.603Z,9.65
2022-11-21T15:34:35.745Z,9.62
2022-11-21T15:37:12.700Z,9.58
2022-11-21T15:39:44.291Z,9.52
2022-11-21T15:42:33.316Z,9.48
2022-11-21T15:45:15.328Z,9.46
2022-11-21T15:47:47.034Z,9.44
2022-11-21T15:50:14.211Z,9.42
2022-11-21T15:52:49.098Z,9.37
2022-11-21T15:55:21.763Z,9.36
2022-11-21T15:57:48.383Z,9.32
2022-11-21T16:00:15.329Z,9.29
2022-11-21T16:02:41.783Z,9.25
2022-11-21T16:05:14.622Z,9.23
2022-11-21T16:07:42.037Z,9.21
2022-11-21T16:10:17.161Z,9.19
2022-11-21T16:12:47.109Z,9.17
2022-11-21T16:15:14.119Z,9.16
2022-11-21T16:17:41.717Z,9.17
2022-11-21T16:20:08.620Z,9.16
2022-11-21T16:22:35.017Z,9.13
2022-11-21T16:25:01.610Z,9.09
2022-11-21T16:27:27.992Z,9.06
2022-11-21T16:29:54.402Z,9.06
2022-11-21T16:32:20.807Z,9.04
2022-11-21T16:34:47.244Z,9.03
2022-11-21T16:37:14.383Z,9.02
2022-11-21T16:39:41.835Z,9.01
2022-11-21T16:42:10.218Z,9.00
2022-11-21T16:44:36.610Z,8.98
2022-11-21T16:47:08.013Z,8.99
2022-11-21T16:49:35.551Z,8.99
2022-11-21T16:52:02.075Z,9.00
2022-11-21T16:54:28.437Z,9.00
2022-11-21T16:56:54.824Z,8.97
2022-11-21T16:59:21.338Z,8.93
2022-11-21T17:01:47.823Z,8.88
2022-11-21T17:04:17.486Z,8.88
2022-11-21T17:06:45.305Z,8.84
2022-11-21T17:09:12.132Z,8.81
2022-11-21T17:11:38.495Z,8.80
2022-11-21T17:14:06.460Z,8.84
2022-11-21T17:16:34.422Z,8.84
2022-11-21T17:19:02.235Z,8.86
2022-11-21T17:21:29.946Z,8.83
2022-11-21T17:23:56.914Z,8.80
2022-11-21T17:26:26.928Z,8.83
2022-11-21T17:29:01.210Z,8.84
2022-11-21T17:31:28.355Z,8.84
2022-11-21T17:34:01.155Z,8.82
2022-11-21T17:36:29.777Z,8.80
2022-11-21T17:38:56.513Z,8.78
2022-11-21T17:41:24.172Z,8.78
2022-11-21T17:43:54.381Z,8.79
2022-11-21T17:46:20.973Z,8.76
2022-11-21T17:48:54.666Z,8.80
2022-11-21T17:51:29.174Z,8.79
2022-11-21T17:53:55.681Z,8.77
2022-11-21T17:56:24.478Z,8.78
2022-11-21T17:58:51.405Z,8.74
2022-11-21T18:01:21.988Z,8.71
2022-11-21T18:03:57.418Z,8.70
2022-11-21T18:06:25.786Z,8.68
2022-11-21T18:08:52.535Z,8.67
2022-11-21T18:11:23.502Z,8.68
2022-11-21T18:13:50.628Z,8.68
2022-11-21T18:16:20.511Z,8.68
2022-11-21T18:18:47.469Z,8.66
2022-11-21T18:21:21.872Z,8.66
2022-11-21T18:23:49.449Z,8.65
2022-11-21T18:26:20.533Z,8.64
2022-11-21T18:29:01.813Z,8.62
2022-11-21T18:31:38.231Z,8.62
2022-11-21T18:34:05.634Z,8.62
2022-11-21T18:36:33.215Z,8.62
2022-11-21T18:39:07.168Z,8.60
2022-11-21T18:41:36.362Z,8.61
2022-11-21T18:44:05.371Z,8.59
2022-11-21T18:46:33.967Z,8.63
2022-11-21T18:49:05.451Z,8.65
2022-11-21T18:51:33.299Z,8.64
2022-11-21T18:54:08.118Z,8.65
2022-11-21T18:56:36.264Z,8.63
2022-11-21T18:59:04.440Z,8.67
2022-11-21T19:01:32.675Z,8.71
2022-11-21T19:04:00.273Z,8.72
2022-11-21T19:06:27.557Z,8.71
2022-11-21T19:08:55.822Z,8.73
2022-11-21T19:11:24.875Z,8.74
2022-11-21T19:13:52.066Z,8.75
2022-11-21T19:16:21.387Z,8.74
2022-11-21T19:19:05.491Z,8.72
2022-11-21T19:21:39.330Z,8.70
2022-11-21T19:24:06.927Z,8.72
2022-11-21T19:26:33.566Z,8.75
2022-11-21T19:28:59.955Z,8.75
2022-11-21T19:31:26.525Z,8.71
2022-11-21T19:33:52.925Z,8.74
2022-11-21T19:36:21.423Z,8.71
2022-11-21T19:38:51.082Z,8.66
2022-11-21T19:41:27.983Z,8.66
2022-11-21T19:43:57.917Z,8.64
2022-11-21T19:46:27.389Z,8.65
2022-11-21T19:48:55.997Z,8.64
2022-11-21T19:51:43.625Z,8.66
2022-11-21T19:54:12.631Z,8.67
2022-11-21T19:56:39.361Z,8.69
2022-11-21T19:59:05.900Z,8.67
2022-11-21T20:01:34.626Z,8.68
2022-11-21T20:04:03.501Z,8.68
2022-11-21T20:06:32.714Z,8.68
2022-11-21T20:09:05.591Z,8.66
2022-11-21T20:11:33.697Z,8.64
2022-11-21T20:14:00.256Z,8.65
2022-11-21T20:16:33.550Z,8.66
2022-11-21T20:19:02.181Z,8.65
2022-11-21T20:21:29.104Z,8.65
2022-11-21T20:23:56.326Z,8.67
2022-11-21T20:26:23.284Z,8.66
2022-11-21T20:28:50.161Z,8.69
2022-11-21T20:31:19.574Z,8.69
2022-11-21T20:33:49.243Z,8.68
2022-11-21T20:36:19.297Z,8.66
2022-11-21T20:38:56.576Z,8.68
2022-11-21T20:41:26.910Z,8.70
2022-11-21T20:46:41.797Z,8.70
2022-11-21T20:49:08.367Z,8.69
2022-11-21T20:53:13.108Z,8.69
2022-11-21T20:54:21.467Z,8.67
2022-11-21T20:56:47.976Z,8.65
2022-11-21T20:59:14.458Z,8.64
2022-11-21T21:01:40.994Z,8.60
2022-11-21T21:04:09.228Z,8.61
2022-11-21T21:06:37.526Z,8.61
2022-11-21T21:09:04.204Z,8.61
2022-11-21T21:11:51.005Z,8.62
2022-11-21T21:14:17.038Z,8.57
2022-11-21T21:16:43.500Z,8.55
2022-11-21T21:19:10.118Z,8.53
2022-11-21T21:21:36.578Z,8.51
2022-11-21T21:24:05.242Z,8.48
2022-11-21T21:26:40.406Z,8.46
2022-11-21T21:29:10.555Z,8.42
2022-11-21T21:31:37.001Z,8.42
2022-11-21T21:34:03.471Z,8.38
2022-11-21T21:36:30.281Z,8.40
2022-11-21T21:38:58.866Z,8.42
2022-11-21T21:41:27.748Z,8.35
2022-11-21T21:43:55.924Z,8.30
2022-11-21T21:46:24.230Z,8.23
2022-11-21T21:48:54.690Z,8.23
2022-11-21T21:51:26.943Z,8.23
2022-11-21T21:53:54.971Z,8.18
2022-11-21T21:56:22.789Z,8.18
2022-11-21T21:58:50.470Z,8.17
2022-11-21T22:01:18.162Z,8.19
2022-11-21T22:03:45.710Z,8.16
2022-11-21T22:06:16.363Z,8.16
2022-11-21T22:08:44.336Z,8.10
2022-11-21T22:11:22.335Z,8.14
2022-11-21T22:13:52.996Z,8.13
2022-11-21T22:16:19.538Z,8.15
2022-11-21T22:18:46.304Z,8.12
2022-11-21T22:21:16.892Z,8.16
2022-11-21T22:24:02.911Z,8.19
2022-11-21T22:26:30.540Z,8.16
2022-11-21T22:28:56.921Z,8.20
2022-11-21T22:31:23.348Z,8.21
2022-11-21T22:33:49.760Z,8.22
2022-11-21T22:36:18.581Z,8.21
2022-11-21T22:38:45.524Z,8.18
2022-11-21T22:41:20.020Z,8.19
2022-11-21T22:43:54.058Z,8.21
2022-11-21T22:46:21.397Z,8.20
2022-11-21T22:48:48.419Z,8.19
2022-11-21T22:51:21.218Z,8.20
2022-11-21T22:53:48.532Z,8.18
2022-11-21T22:56:17.184Z,8.18
2022-11-21T22:58:44.371Z,8.18
2022-11-21T23:01:33.261Z,8.18
2022-11-21T23:03:59.796Z,8.16
2022-11-21T23:06:26.995Z,8.17
2022-11-21T23:08:55.499Z,8.16
2022-11-21T23:11:27.889Z,8.14
2022-11-21T23:13:55.848Z,8.06
2022-11-21T23:16:22.930Z,8.07
2022-11-21T23:18:52.737Z,8.03
2022-11-21T23:21:19.186Z,8.02
2022-11-21T23:23:45.652Z,8.01
2022-11-21T23:26:12.324Z,7.98
2022-11-21T23:28:38.718Z,8.00
2022-11-21T23:31:05.154Z,7.97
2022-11-21T23:33:31.585Z,7.95
2022-11-21T23:35:57.949Z,7.96
2022-11-21T23:38:24.353Z,7.97
2022-11-21T23:40:50.822Z,7.98
2022-11-21T23:43:18.297Z,8.00
2022-11-21T23:45:49.218Z,8.01
2022-11-21T23:48:15.633Z,8.04
2022-11-21T23:50:42.022Z,8.09
2022-11-21T23:53:09.281Z,8.10
2022-11-21T23:55:36.073Z,8.12
2022-11-21T23:58:02.459Z,8.13
